createdAt,value
2022-10-17T00:01:08.947Z,15.73
2022-10-17T00:03:40.407Z,15.90
2022-10-17T00:06:11.864Z,15.27
2022-10-17T00:08:44.025Z,15.40
2022-10-17T00:13:48.210Z,15.20
2022-10-17T00:16:27.240Z,16.33
2022-10-17T00:18:54.556Z,15.40
2022-10-17T00:21:23.022Z,16.33
2022-10-17T00:23:50.549Z,14.57
2022-10-17T00:26:18.661Z,15.32
2022-10-17T00:28:51.736Z,15.50
2022-10-17T00:31:21.385Z,15.65
2022-10-17T00:33:48.620Z,16.73
2022-10-17T00:36:23.262Z,16.33
2022-10-17T00:38:57.866Z,15.88
2022-10-17T00:41:33.161Z,16.63
2022-10-17T00:44:30.740Z,15.93
2022-10-17T00:47:11.280Z,16.85
2022-10-17T00:49:39.901Z,16.05
2022-10-17T00:52:21.438Z,16.15
2022-10-17T00:55:09.492Z,17.23
2022-10-17T00:57:36.921Z,15.60
2022-10-17T01:00:09.230Z,16.50
2022-10-17T01:05:04.061Z,16.00
2022-10-17T01:07:34.932Z,16.38
2022-10-17T01:10:06.562Z,15.80
2022-10-17T01:13:07.327Z,17.25
2022-10-17T01:15:40.713Z,17.40
2022-10-17T01:18:42.930Z,16.95
2022-10-17T01:21:54.802Z,16.30
2022-10-17T01:24:49.423Z,17.50
2022-10-17T01:27:37.868Z,16.83
2022-10-17T01:30:45.976Z,16.80
2022-10-17T01:33:18.049Z,17.00
2022-10-17T01:36:03.283Z,17.00
2022-10-17T01:38:59.079Z,17.60
2022-10-17T01:41:44.445Z,17.85
2022-10-17T01:44:28.963Z,19.08
2022-10-17T01:47:11.071Z,17.65
2022-10-17T01:49:41.771Z,17.05
2022-10-17T01:52:15.436Z,18.48
2022-10-17T01:55:02.733Z,16.95
2022-10-17T01:57:41.497Z,19.75
2022-10-17T02:00:19.179Z,19.70
2022-10-17T02:02:49.053Z,18.38
2022-10-17T02:05:21.848Z,19.77
2022-10-17T02:07:48.919Z,22.60
2022-10-17T02:10:30.983Z,20.65
2022-10-17T02:13:45.843Z,20.20
2022-10-17T02:16:38.315Z,19.48
2022-10-17T02:19:42.760Z,18.35
2022-10-17T02:22:24.827Z,18.45
2022-10-17T02:25:37.095Z,18.73
2022-10-17T02:28:36.179Z,17.48
2022-10-17T02:31:17.059Z,17.73
2022-10-17T02:34:03.102Z,18.42
2022-10-17T02:36:45.374Z,18.50
2022-10-17T02:39:15.698Z,18.40
2022-10-17T02:41:44.947Z,18.23
2022-10-17T02:44:12.550Z,19.55
2022-10-17T02:46:42.556Z,19.42
2022-10-17T02:49:22.977Z,18.08
2022-10-17T02:52:04.419Z,20.02
2022-10-17T02:54:39.185Z,18.73
2022-10-17T02:57:27.594Z,19.48
2022-10-17T03:00:00.596Z,20.65
2022-10-17T03:02:28.248Z,20.98
2022-10-17T03:04:56.448Z,21.08
2022-10-17T03:07:23.563Z,21.33
2022-10-17T03:09:50.838Z,20.08
2022-10-17T03:12:17.907Z,20.05
2022-10-17T03:14:45.083Z,20.38
2022-10-17T03:17:14.694Z,21.30
2022-10-17T03:19:41.886Z,19.08
2022-10-17T03:22:09.250Z,18.75
2022-10-17T03:24:36.310Z,20.17
2022-10-17T03:27:03.774Z,21.42
2022-10-17T03:29:31.035Z,21.25
2022-10-17T03:31:58.159Z,21.23
2022-10-17T03:34:25.289Z,21.55
2022-10-17T03:36:52.427Z,20.98
2022-10-17T03:39:21.745Z,19.95
2022-10-17T03:41:48.885Z,19.40
2022-10-17T03:44:16.026Z,19.42
2022-10-17T03:46:43.180Z,18.13
2022-10-17T03:49:13.311Z,18.88
2022-10-17T03:51:40.408Z,18.67
2022-10-17T03:54:07.437Z,17.85
2022-10-17T03:56:34.504Z,18.67
2022-10-17T03:59:01.622Z,19.60
2022-10-17T04:01:31.972Z,18.92
2022-10-17T04:04:01.808Z,18.75
2022-10-17T04:06:28.892Z,23.23
2022-10-17T04:08:59.152Z,28.38
2022-10-17T04:11:26.433Z,49.67
2022-10-17T04:14:03.333Z,30.02
2022-10-17T04:16:30.586Z,31.83
2022-10-17T04:18:59.887Z,28.55
2022-10-17T04:21:28.551Z,27.85
2022-10-17T04:24:00.653Z,28.20
2022-10-17T04:26:28.251Z,23.45
2022-10-17T04:28:56.367Z,19.73
2022-10-17T04:31:23.742Z,22.92
2022-10-17T04:33:51.309Z,22.95
2022-10-17T04:36:20.881Z,25.77
2022-10-17T04:38:48.340Z,23.88
2022-10-17T04:41:28.222Z,24.08
2022-10-17T04:43:57.662Z,24.52
2022-10-17T04:46:24.875Z,24.60
2022-10-17T04:48:52.093Z,24.80
2022-10-17T04:51:21.838Z,24.92
2022-10-17T04:53:53.999Z,24.52
2022-10-17T04:56:23.844Z,23.60
2022-10-17T04:58:52.046Z,22.65
2022-10-17T05:01:21.878Z,23.45
2022-10-17T05:03:49.853Z,22.27
2022-10-17T05:06:21.691Z,21.90
2022-10-17T05:08:49.113Z,22.73
2022-10-17T05:11:26.615Z,21.48
2022-10-17T05:14:01.752Z,20.75
2022-10-17T05:16:30.147Z,20.48
2022-10-17T05:18:59.482Z,19.95
2022-10-17T05:21:29.223Z,19.02
2022-10-17T05:23:56.614Z,18.50
2022-10-17T05:26:27.326Z,19.20
2022-10-17T05:28:54.851Z,18.77
2022-10-17T05:31:24.643Z,19.23
2022-10-17T05:33:51.706Z,18.92
2022-10-17T05:36:18.783Z,19.20
2022-10-17T05:38:51.288Z,18.40
2022-10-17T05:41:19.793Z,16.60
2022-10-17T05:43:47.137Z,15.18
2022-10-17T05:46:14.488Z,15.70
2022-10-17T05:48:41.531Z,16.23
2022-10-17T05:51:13.145Z,14.90
2022-10-17T05:53:41.857Z,13.38
2022-10-17T05:56:12.538Z,13.40
2022-10-17T05:58:50.164Z,15.35
2022-10-17T06:01:19.232Z,15.20
2022-10-17T06:03:46.579Z,15.32
2022-10-17T06:06:15.634Z,15.00
2022-10-17T06:08:43.390Z,14.55
2022-10-17T06:11:13.839Z,14.75
2022-10-17T06:13:57.287Z,14.25
2022-10-17T06:16:26.987Z,16.02
2022-10-17T06:18:54.337Z,15.07
2022-10-17T06:21:28.573Z,16.08
2022-10-17T06:23:55.592Z,15.15
2022-10-17T06:26:27.282Z,14.80
2022-10-17T06:28:57.997Z,15.50
2022-10-17T06:31:25.238Z,15.95
2022-10-17T06:33:52.276Z,17.63
2022-10-17T06:36:19.431Z,16.25
2022-10-17T06:38:46.772Z,16.10
2022-10-17T06:41:18.615Z,16.20
2022-10-17T06:43:47.274Z,16.48
2022-10-17T06:46:17.725Z,16.00
2022-10-17T06:48:45.416Z,15.88
2022-10-17T06:51:13.226Z,16.52
2022-10-17T06:53:41.121Z,16.63
2022-10-17T06:56:10.292Z,18.13
2022-10-17T06:58:39.957Z,15.90
2022-10-17T07:01:13.326Z,18.70
2022-10-17T07:03:43.737Z,17.17
2022-10-17T07:06:11.407Z,16.15
2022-10-17T07:08:42.401Z,14.75
2022-10-17T07:11:16.097Z,15.25
2022-10-17T07:13:43.865Z,15.43
2022-10-17T07:16:12.322Z,14.15
2022-10-17T07:18:40.327Z,13.40
2022-10-17T07:21:08.874Z,14.25
2022-10-17T07:23:37.384Z,14.25
2022-10-17T07:26:09.372Z,14.30
2022-10-17T07:31:12.050Z,14.05
2022-10-17T07:33:41.823Z,13.45
2022-10-17T07:36:12.611Z,13.00
2022-10-17T07:38:40.166Z,13.82
2022-10-17T07:41:20.805Z,13.80
2022-10-17T07:43:54.377Z,14.52
2022-10-17T07:46:36.374Z,13.80
2022-10-17T07:49:03.604Z,13.30
2022-10-17T07:51:33.612Z,13.32
2022-10-17T07:54:00.918Z,14.43
2022-10-17T07:56:29.668Z,14.10
2022-10-17T07:59:02.757Z,14.15
2022-10-17T08:01:34.748Z,13.43
2022-10-17T08:04:01.828Z,14.93
2022-10-17T08:06:31.308Z,13.43
2022-10-17T08:08:58.856Z,14.43
2022-10-17T08:11:28.336Z,14.38
2022-10-17T08:13:56.161Z,13.45
2022-10-17T08:16:25.277Z,13.88
2022-10-17T08:18:52.291Z,13.88
2022-10-17T08:21:21.751Z,13.27
2022-10-17T08:23:48.804Z,13.15
2022-10-17T08:26:17.408Z,13.30
2022-10-17T08:28:44.571Z,12.20
2022-10-17T08:31:20.954Z,13.63
2022-10-17T08:33:52.517Z,12.40
2022-10-17T08:36:22.286Z,11.95
2022-10-17T08:38:53.095Z,12.98
2022-10-17T08:41:39.009Z,13.32
2022-10-17T08:44:49.908Z,12.63
2022-10-17T08:47:28.258Z,12.43
2022-10-17T08:50:02.000Z,12.93
2022-10-17T08:53:02.892Z,13.52
2022-10-17T08:55:53.162Z,13.65
2022-10-17T08:58:36.884Z,14.63
2022-10-17T09:01:31.995Z,12.32
2022-10-17T09:04:46.517Z,12.60
2022-10-17T09:07:41.822Z,9.38
2022-10-17T09:10:19.456Z,9.50
2022-10-17T09:13:27.337Z,10.88
2022-10-17T09:16:31.092Z,12.30
2022-10-17T09:19:20.276Z,11.75
2022-10-17T09:22:10.704Z,12.40
2022-10-17T09:24:45.950Z,13.20
2022-10-17T09:27:36.879Z,12.45
2022-10-17T09:30:46.509Z,13.77
2022-10-17T09:33:42.227Z,13.93
2022-10-17T09:36:24.996Z,13.30
2022-10-17T09:39:05.715Z,14.27
2022-10-17T09:41:48.240Z,14.50
2022-10-17T09:44:22.574Z,13.90
2022-10-17T09:47:11.168Z,12.65
2022-10-17T09:49:45.010Z,13.60
2022-10-17T09:52:39.715Z,13.25
2022-10-17T09:55:22.609Z,13.50
2022-10-17T09:57:58.401Z,13.38
2022-10-17T10:00:31.825Z,13.00
2022-10-17T10:03:22.894Z,14.15
2022-10-17T10:06:12.541Z,14.52
2022-10-17T10:08:58.847Z,13.63
2022-10-17T10:12:15.862Z,12.98
2022-10-17T10:14:46.261Z,14.18
2022-10-17T10:17:44.262Z,13.07
2022-10-17T10:20:37.354Z,12.80
2022-10-17T10:23:19.521Z,13.50
2022-10-17T10:25:56.690Z,13.98
2022-10-17T10:28:37.470Z,13.07
2022-10-17T10:31:09.861Z,13.82
2022-10-17T10:33:45.937Z,13.68
2022-10-17T10:36:16.552Z,14.02
2022-10-17T10:39:00.171Z,13.30
2022-10-17T10:41:48.040Z,13.23
2022-10-17T10:44:21.629Z,14.15
2022-10-17T10:46:48.725Z,14.18
2022-10-17T10:49:31.676Z,14.77
2022-10-17T10:52:00.533Z,14.02
2022-10-17T10:54:42.322Z,13.68
2022-10-17T10:59:51.925Z,13.32
2022-10-17T11:02:25.198Z,13.57
2022-10-17T11:05:14.545Z,11.52
2022-10-17T11:07:56.200Z,11.85
2022-10-17T11:10:55.366Z,12.10
2022-10-17T11:13:32.925Z,11.65
2022-10-17T11:16:21.890Z,11.20
2022-10-17T11:19:28.525Z,10.25
2022-10-17T11:22:15.008Z,10.18
2022-10-17T11:24:59.776Z,10.52
2022-10-17T11:27:29.671Z,10.70
2022-10-17T11:29:59.449Z,9.07
2022-10-17T11:32:40.641Z,9.25
2022-10-17T11:35:25.183Z,8.88
2022-10-17T11:38:24.363Z,9.20
2022-10-17T11:40:56.112Z,9.23
2022-10-17T11:43:48.831Z,9.60
2022-10-17T11:46:25.638Z,9.27
2022-10-17T11:49:38.223Z,9.43
2022-10-17T11:52:37.441Z,8.77
2022-10-17T11:55:18.433Z,8.65
2022-10-17T11:58:10.215Z,9.18
2022-10-17T12:00:58.965Z,9.02
2022-10-17T12:04:02.292Z,9.50
2022-10-17T12:07:14.100Z,9.10
2022-10-17T12:10:27.832Z,9.77
2022-10-17T12:12:54.971Z,9.65
2022-10-17T12:15:27.135Z,10.15
2022-10-17T12:18:04.306Z,10.20
2022-10-17T12:20:40.541Z,9.68
2022-10-17T12:23:16.569Z,10.23
2022-10-17T12:26:05.750Z,10.90
2022-10-17T12:28:46.829Z,10.32
2022-10-17T12:31:17.404Z,10.95
2022-10-17T12:34:02.589Z,10.82
2022-10-17T12:36:32.116Z,11.68
2022-10-17T12:39:02.237Z,11.70
2022-10-17T12:41:38.497Z,12.05
2022-10-17T12:44:15.032Z,12.60
2022-10-17T12:47:10.834Z,12.40
2022-10-17T12:49:44.177Z,11.55
2022-10-17T12:52:29.002Z,10.25
2022-10-17T12:55:14.787Z,11.48
2022-10-17T12:58:09.460Z,12.05
2022-10-17T13:01:19.130Z,11.38
2022-10-17T13:03:47.770Z,11.52
2022-10-17T13:06:37.926Z,12.30
2022-10-17T13:09:26.859Z,11.88
2022-10-17T13:11:55.446Z,11.68
2022-10-17T13:14:25.002Z,11.75
2022-10-17T13:17:01.848Z,11.73
2022-10-17T13:19:44.940Z,11.60
2022-10-17T13:22:24.466Z,11.52
2022-10-17T13:25:05.457Z,11.82
2022-10-17T13:27:35.070Z,12.47
2022-10-17T13:30:29.476Z,12.05
2022-10-17T13:33:00.034Z,11.93
2022-10-17T13:38:32.350Z,11.35
2022-10-17T13:41:23.297Z,11.75
2022-10-17T13:43:48.490Z,12.05
2022-10-17T13:46:39.547Z,12.20
2022-10-17T13:49:35.457Z,12.10
2022-10-17T13:52:06.275Z,11.00
2022-10-17T13:54:45.883Z,11.40
2022-10-17T13:57:24.288Z,11.88
2022-10-17T14:00:03.125Z,11.57
2022-10-17T14:02:34.912Z,10.95
2022-10-17T14:05:19.198Z,11.60
2022-10-17T14:08:12.037Z,12.05
2022-10-17T14:10:43.301Z,13.13
2022-10-17T14:13:30.348Z,12.65
2022-10-17T14:16:01.847Z,13.15
2022-10-17T14:18:36.408Z,12.57
2022-10-17T14:24:13.538Z,13.02
2022-10-17T14:26:59.978Z,12.95
2022-10-17T14:29:32.571Z,13.25
2022-10-17T14:32:10.914Z,13.88
2022-10-17T14:34:40.884Z,12.60
2022-10-17T14:37:28.623Z,14.10
2022-10-17T14:39:58.952Z,12.77
2022-10-17T14:42:26.353Z,14.02
2022-10-17T14:44:57.890Z,13.32
2022-10-17T14:47:42.705Z,14.07
2022-10-17T14:50:13.447Z,13.45
2022-10-17T14:52:43.333Z,12.90
2022-10-17T14:55:28.784Z,12.77
2022-10-17T14:57:56.383Z,13.20
2022-10-17T15:00:25.013Z,12.43
2022-10-17T15:02:54.354Z,12.50
2022-10-17T15:05:23.784Z,12.40
2022-10-17T15:07:51.061Z,12.75
2022-10-17T15:10:36.756Z,13.02
2022-10-17T15:13:26.130Z,11.48
2022-10-17T15:15:52.601Z,11.43
2022-10-17T15:18:19.767Z,12.60
2022-10-17T15:20:59.604Z,12.35
2022-10-17T15:23:32.352Z,11.55
2022-10-17T15:25:59.456Z,12.20
2022-10-17T15:28:27.494Z,11.55
2022-10-17T15:30:54.650Z,10.85
2022-10-17T15:33:21.706Z,12.00
2022-10-17T15:35:51.770Z,11.65
2022-10-17T15:38:18.854Z,12.57
2022-10-17T15:40:53.300Z,11.88
2022-10-17T15:43:20.352Z,11.40
2022-10-17T15:45:48.187Z,12.13
2022-10-17T15:48:26.736Z,12.48
2022-10-17T15:50:55.870Z,11.95
2022-10-17T15:53:23.981Z,12.05
2022-10-17T15:55:51.136Z,11.38
2022-10-17T15:58:19.656Z,11.93
2022-10-17T16:00:47.751Z,12.07
2022-10-17T16:03:14.950Z,11.40
2022-10-17T16:05:41.987Z,12.48
2022-10-17T16:08:09.083Z,11.68
2022-10-17T16:10:40.880Z,11.48
2022-10-17T16:13:28.997Z,12.10
2022-10-17T16:15:56.040Z,11.50
2022-10-17T16:18:23.092Z,12.15
2022-10-17T16:20:52.609Z,11.95
2022-10-17T16:23:19.689Z,12.40
2022-10-17T16:25:46.810Z,12.80
2022-10-17T16:28:13.867Z,13.15
2022-10-17T16:30:44.934Z,13.02
2022-10-17T16:33:12.796Z,12.03
2022-10-17T16:35:42.387Z,13.68
2022-10-17T16:38:09.479Z,12.48
2022-10-17T16:40:39.302Z,12.23
2022-10-17T16:43:07.678Z,13.18
2022-10-17T16:45:36.113Z,13.60
2022-10-17T16:48:03.494Z,13.88
2022-10-17T16:50:35.313Z,13.52
2022-10-17T16:53:03.993Z,14.07
2022-10-17T16:55:31.023Z,14.63
2022-10-17T16:57:59.970Z,15.00
2022-10-17T17:00:29.379Z,17.42
2022-10-17T17:02:58.771Z,16.40
2022-10-17T17:05:25.839Z,16.42
2022-10-17T17:07:53.167Z,16.98
2022-10-17T17:10:22.648Z,19.85
2022-10-17T17:12:49.653Z,19.27
2022-10-17T17:15:16.688Z,18.60
2022-10-17T17:17:50.586Z,17.52
2022-10-17T17:20:20.569Z,16.92
2022-10-17T17:22:50.880Z,15.70
2022-10-17T17:25:17.953Z,15.68
2022-10-17T17:27:44.935Z,15.23
2022-10-17T17:30:12.324Z,15.40
2022-10-17T17:32:42.164Z,16.10
2022-10-17T17:35:09.841Z,16.88
2022-10-17T17:37:37.113Z,16.30
2022-10-17T17:40:06.177Z,16.05
2022-10-17T17:42:35.558Z,14.38
2022-10-17T17:45:03.251Z,15.70
2022-10-17T17:47:30.580Z,14.93
2022-10-17T17:49:57.862Z,16.13
2022-10-17T17:52:25.209Z,16.65
2022-10-17T17:54:52.238Z,16.13
2022-10-17T17:57:19.358Z,14.95
2022-10-17T17:59:49.862Z,14.82
2022-10-17T18:02:17.335Z,14.18
2022-10-17T18:04:46.427Z,14.73
2022-10-17T18:07:13.454Z,15.05
2022-10-17T18:09:40.471Z,15.65
2022-10-17T18:12:09.944Z,15.15
2022-10-17T18:14:36.942Z,15.68
2022-10-17T18:17:03.999Z,15.85
2022-10-17T18:19:31.158Z,16.48
2022-10-17T18:22:00.708Z,16.15
2022-10-17T18:24:27.926Z,16.23
2022-10-17T18:26:59.681Z,15.40
2022-10-17T18:29:27.680Z,14.88
2022-10-17T18:31:57.226Z,17.15
2022-10-17T18:34:24.734Z,18.42
2022-10-17T18:36:52.965Z,17.83
2022-10-17T18:39:20.565Z,17.15
2022-10-17T18:41:47.614Z,17.67
2022-10-17T18:44:15.673Z,18.13
2022-10-17T18:46:43.200Z,15.65
2022-10-17T18:49:15.935Z,16.95
2022-10-17T18:51:45.489Z,18.33
2022-10-17T18:54:20.669Z,17.60
2022-10-17T18:56:53.966Z,17.33
2022-10-17T18:59:23.827Z,16.80
2022-10-17T19:01:51.097Z,16.05
2022-10-17T19:04:20.793Z,16.25
2022-10-17T19:06:47.917Z,14.65
2022-10-17T19:09:15.968Z,15.68
2022-10-17T19:11:43.540Z,13.95
2022-10-17T19:14:13.497Z,15.05
2022-10-17T19:16:51.739Z,14.45
2022-10-17T19:19:23.213Z,14.80
2022-10-17T19:21:51.326Z,15.45
2022-10-17T19:24:25.041Z,14.00
2022-10-17T19:26:58.320Z,14.70
2022-10-17T19:29:28.678Z,14.27
2022-10-17T19:34:22.768Z,16.50
2022-10-17T19:36:49.918Z,15.85
2022-10-17T19:39:26.623Z,14.07
2022-10-17T19:41:53.771Z,14.18
2022-10-17T19:44:20.994Z,14.73
2022-10-17T19:46:50.538Z,14.18
2022-10-17T19:49:20.269Z,16.20
2022-10-17T19:51:47.423Z,17.52
2022-10-17T19:54:18.271Z,15.90
2022-10-17T19:56:45.369Z,16.25
2022-10-17T19:59:17.022Z,17.15
2022-10-17T20:01:45.086Z,17.42
2022-10-17T20:04:13.043Z,17.23
2022-10-17T20:06:41.215Z,16.80
2022-10-17T20:09:13.953Z,18.00
2022-10-17T20:11:49.232Z,17.60
2022-10-17T20:14:18.475Z,18.25
2022-10-17T20:16:50.143Z,17.67
2022-10-17T20:19:19.129Z,17.42
2022-10-17T20:21:46.340Z,15.98
2022-10-17T20:24:17.067Z,18.13
2022-10-17T20:27:04.430Z,18.33
2022-10-17T20:29:31.665Z,16.70
2022-10-17T20:31:59.022Z,17.50
2022-10-17T20:34:26.157Z,18.35
2022-10-17T20:36:55.518Z,19.27
2022-10-17T20:39:23.469Z,18.05
2022-10-17T20:41:50.541Z,21.08
2022-10-17T20:44:17.764Z,17.77
2022-10-17T20:46:57.628Z,18.77
2022-10-17T20:49:28.712Z,19.92
2022-10-17T20:51:56.091Z,19.58
2022-10-17T20:54:23.257Z,19.08
2022-10-17T20:56:50.413Z,19.65
2022-10-17T20:59:18.278Z,18.63
2022-10-17T21:01:46.231Z,19.52
2022-10-17T21:07:01.581Z,19.67
2022-10-17T21:09:28.702Z,18.52
2022-10-17T21:11:58.123Z,20.17
2022-10-17T21:14:28.676Z,19.88
2022-10-17T21:16:55.804Z,19.48
2022-10-17T21:19:22.915Z,19.88
2022-10-17T21:21:50.782Z,22.05
2022-10-17T21:24:20.562Z,22.75
2022-10-17T21:26:55.296Z,20.08
2022-10-17T21:29:23.842Z,19.08
2022-10-17T21:31:51.460Z,20.40
2022-10-17T21:34:23.917Z,18.88
2022-10-17T21:36:53.912Z,19.83
2022-10-17T21:39:25.968Z,19.45
2022-10-17T21:41:55.281Z,19.15
2022-10-17T21:44:25.364Z,19.00
2022-10-17T21:46:53.637Z,19.33
2022-10-17T21:49:25.384Z,19.35
2022-10-17T21:51:53.275Z,20.23
2022-10-17T21:54:23.074Z,20.25
2022-10-17T21:56:51.219Z,20.73
2022-10-17T21:59:18.512Z,19.85
2022-10-17T22:01:48.445Z,18.98
2022-10-17T22:04:19.182Z,19.02
2022-10-17T22:06:51.141Z,19.38
2022-10-17T22:11:57.869Z,18.96
2022-10-17T22:14:28.338Z,18.00
2022-10-17T22:16:56.263Z,19.35
2022-10-17T22:19:28.391Z,18.23
2022-10-17T22:24:25.443Z,19.98
2022-10-17T22:26:52.750Z,18.65
2022-10-17T22:29:22.003Z,18.83
2022-10-17T22:31:49.311Z,17.73
2022-10-17T22:34:18.030Z,18.45
2022-10-17T22:36:49.037Z,19.85
2022-10-17T22:39:16.455Z,19.30
2022-10-17T22:41:46.021Z,18.83
2022-10-17T22:44:13.230Z,18.50
2022-10-17T22:46:43.014Z,18.48
2022-10-17T22:49:12.483Z,18.17
2022-10-17T22:51:39.665Z,18.90
2022-10-17T22:54:06.881Z,18.45
2022-10-17T22:56:33.960Z,18.52
2022-10-17T22:59:01.019Z,18.77
2022-10-17T23:01:28.140Z,19.48
2022-10-17T23:03:57.585Z,18.55
2022-10-17T23:06:24.879Z,18.17
2022-10-17T23:08:52.448Z,19.13
2022-10-17T23:11:21.033Z,17.08
2022-10-17T23:13:48.669Z,17.33
2022-10-17T23:16:16.110Z,18.30
2022-10-17T23:18:44.222Z,18.67
2022-10-17T23:21:14.334Z,18.42
2022-10-17T23:23:41.440Z,17.83
2022-10-17T23:26:16.548Z,17.55
2022-10-17T23:28:43.938Z,17.85
2022-10-17T23:31:22.358Z,17.20
2022-10-17T23:33:50.311Z,18.25
2022-10-17T23:36:23.069Z,17.58
2022-10-17T23:38:52.650Z,16.88
2022-10-17T23:41:22.149Z,16.92
2022-10-17T23:43:49.234Z,17.27
2022-10-17T23:46:16.296Z,16.45
2022-10-17T23:48:46.011Z,17.33
2022-10-17T23:51:13.347Z,17.63
2022-10-17T23:53:41.244Z,17.20
2022-10-17T23:56:10.383Z,16.75
2022-10-17T23:58:42.904Z,16.35
